createdAt,value
2018-05-04T00:01:20.157Z,14.14
2018-05-04T00:03:49.804Z,14.13
2018-05-04T00:06:19.488Z,14.06
2018-05-04T00:08:49.116Z,14.03
2018-05-04T00:11:18.789Z,14.00
2018-05-04T00:13:48.148Z,13.96
2018-05-04T00:16:17.767Z,13.94
2018-05-04T00:18:47.388Z,13.89
2018-05-04T00:21:16.675Z,13.83
2018-05-04T00:23:46.327Z,13.79
2018-05-04T00:26:15.734Z,13.76
2018-05-04T00:28:45.413Z,13.75
2018-05-04T00:31:15.052Z,13.74
2018-05-04T00:33:44.707Z,13.73
2018-05-04T00:36:14.332Z,13.73
2018-05-04T00:38:44.056Z,13.70
2018-05-04T00:41:13.689Z,13.65
2018-05-04T00:43:43.035Z,13.66
2018-05-04T00:46:12.444Z,13.66
2018-05-04T00:48:42.082Z,13.67
2018-05-04T00:51:11.731Z,13.67
2018-05-04T00:53:52.595Z,13.67
2018-05-04T00:56:21.949Z,13.67
2018-05-04T00:58:51.578Z,13.59
2018-05-04T01:01:21.221Z,13.50
2018-05-04T01:03:50.917Z,13.49
2018-05-04T01:06:20.053Z,13.45
2018-05-04T01:08:49.693Z,13.49
2018-05-04T01:11:19.339Z,13.53
2018-05-04T01:13:48.984Z,13.57
2018-05-04T01:16:18.617Z,13.56
2018-05-04T01:18:47.990Z,13.57
2018-05-04T01:21:17.675Z,13.54
2018-05-04T01:23:47.314Z,13.54
2018-05-04T01:26:16.618Z,13.52
2018-05-04T01:28:46.266Z,13.45
2018-05-04T01:31:15.904Z,13.50
2018-05-04T01:33:45.557Z,13.49
2018-05-04T01:36:15.200Z,13.41
2018-05-04T01:38:44.638Z,13.28
2018-05-04T01:41:14.322Z,13.27
2018-05-04T01:43:43.970Z,13.24
2018-05-04T01:46:13.619Z,13.31
2018-05-04T01:48:43.245Z,13.27
2018-05-04T01:51:12.883Z,13.24
2018-05-04T01:53:42.243Z,13.10
2018-05-04T01:56:11.935Z,13.00
2018-05-04T01:58:41.579Z,13.09
2018-05-04T02:01:11.235Z,13.11
2018-05-04T02:03:40.860Z,12.92
2018-05-04T02:06:10.514Z,12.80
2018-05-04T02:08:39.878Z,12.75
2018-05-04T02:11:09.516Z,12.61
2018-05-04T02:13:39.204Z,12.55
2018-05-04T02:16:08.872Z,12.51
2018-05-04T02:18:38.535Z,12.36
2018-05-04T02:21:08.184Z,12.32
2018-05-04T02:23:37.823Z,12.34
2018-05-04T02:26:07.518Z,12.36
2018-05-04T02:28:37.162Z,12.26
2018-05-04T02:31:06.609Z,12.19
2018-05-04T02:33:36.247Z,12.29
2018-05-04T02:36:05.897Z,12.44
2018-05-04T02:38:35.530Z,12.50
2018-05-04T02:41:05.174Z,12.50
2018-05-04T02:43:34.816Z,12.53
2018-05-04T02:46:04.446Z,12.44
2018-05-04T02:48:34.131Z,12.33
2018-05-04T02:51:03.749Z,12.29
2018-05-04T02:53:33.387Z,12.36
2018-05-04T02:56:03.022Z,12.26
2018-05-04T02:58:32.663Z,12.19
2018-05-04T03:01:02.294Z,12.09
2018-05-04T03:03:31.941Z,12.08
2018-05-04T03:06:01.630Z,12.12
2018-05-04T03:08:31.274Z,12.08
2018-05-04T03:11:00.912Z,12.04
2018-05-04T03:13:30.541Z,12.13
2018-05-04T03:15:59.896Z,12.16
2018-05-04T03:18:29.521Z,12.14
2018-05-04T03:20:59.144Z,12.12
2018-05-04T03:23:28.819Z,12.19
2018-05-04T03:26:00.144Z,12.28
2018-05-04T03:28:29.830Z,12.32
2018-05-04T03:30:59.453Z,12.38
2018-05-04T03:33:29.099Z,12.40
2018-05-04T03:35:58.725Z,12.38
2018-05-04T03:38:28.339Z,12.25
2018-05-04T03:40:57.975Z,12.25
2018-05-04T03:43:27.608Z,12.22
2018-05-04T03:45:57.267Z,12.05
2018-05-04T03:48:26.315Z,11.87
2018-05-04T03:50:55.941Z,11.82
2018-05-04T03:53:25.599Z,11.93
2018-05-04T03:55:55.248Z,11.93
2018-05-04T03:58:35.953Z,11.95
2018-05-04T04:01:16.512Z,11.92
2018-05-04T04:03:57.105Z,12.19
2018-05-04T04:06:26.469Z,12.35
2018-05-04T04:08:56.098Z,12.44
2018-05-04T04:11:25.768Z,12.55
2018-05-04T04:13:55.391Z,12.84
2018-05-04T04:16:25.034Z,13.00
2018-05-04T04:18:54.664Z,13.12
2018-05-04T04:21:24.292Z,13.26
2018-05-04T04:23:53.979Z,13.43
2018-05-04T04:26:23.604Z,13.50
2018-05-04T04:28:53.266Z,13.65
2018-05-04T04:31:22.882Z,13.78
2018-05-04T04:33:52.511Z,13.84
2018-05-04T04:36:21.891Z,13.81
2018-05-04T04:38:51.526Z,13.98
2018-05-04T04:41:21.153Z,14.08
2018-05-04T04:43:50.774Z,14.15
2018-05-04T04:46:20.445Z,14.19
2018-05-04T04:48:50.077Z,14.25
2018-05-04T04:51:19.729Z,14.34
2018-05-04T04:53:49.371Z,14.40
2018-05-04T04:56:18.992Z,14.34
2018-05-04T04:58:48.607Z,14.32
2018-05-04T05:01:18.231Z,14.28
2018-05-04T05:03:47.913Z,14.21
2018-05-04T05:06:17.535Z,14.09
2018-05-04T05:08:47.177Z,14.01
2018-05-04T05:11:16.806Z,13.97
2018-05-04T05:13:46.430Z,13.95
2018-05-04T05:16:16.045Z,14.00
2018-05-04T05:18:45.662Z,14.00
2018-05-04T05:21:15.317Z,13.98
2018-05-04T05:23:44.941Z,14.13
2018-05-04T05:26:14.589Z,14.28
2018-05-04T05:28:44.219Z,14.39
2018-05-04T05:31:13.864Z,14.82
2018-05-04T05:33:43.496Z,15.51
2018-05-04T05:36:13.127Z,15.85
2018-05-04T05:38:42.778Z,15.87
2018-05-04T05:41:12.418Z,15.80
2018-05-04T05:43:42.058Z,15.90
2018-05-04T05:46:11.716Z,15.96
2018-05-04T05:48:41.362Z,15.85
2018-05-04T05:51:10.992Z,15.90
2018-05-04T05:53:40.621Z,16.03
2018-05-04T05:56:10.246Z,15.89
2018-05-04T05:58:39.875Z,15.63
2018-05-04T06:01:09.576Z,15.63
2018-05-04T06:03:39.209Z,15.77
2018-05-04T06:06:08.840Z,15.91
2018-05-04T06:08:38.465Z,16.13
2018-05-04T06:11:08.124Z,16.43
2018-05-04T06:13:37.756Z,16.57
2018-05-04T06:16:07.146Z,16.64
2018-05-04T06:18:36.776Z,16.71
2018-05-04T06:23:42.209Z,17.01
2018-05-04T06:26:11.823Z,17.06
2018-05-04T06:28:41.470Z,17.14
2018-05-04T06:31:11.098Z,17.19
2018-05-04T06:33:40.804Z,17.38
2018-05-04T06:36:10.368Z,17.52
2018-05-04T06:38:39.757Z,17.49
2018-05-04T06:41:09.427Z,17.55
2018-05-04T06:43:39.060Z,17.62
2018-05-04T06:46:08.725Z,17.69
2018-05-04T06:48:38.376Z,17.57
2018-05-04T06:51:08.202Z,17.60
2018-05-04T06:53:37.827Z,17.57
2018-05-04T06:56:07.462Z,17.40
2018-05-04T06:58:37.140Z,17.33
2018-05-04T07:01:06.770Z,17.51
2018-05-04T07:03:36.440Z,17.80
2018-05-04T07:06:06.069Z,18.01
2018-05-04T07:08:35.708Z,18.19
2018-05-04T07:11:05.327Z,18.44
2018-05-04T07:13:34.960Z,18.53
2018-05-04T07:16:04.611Z,18.59
2018-05-04T07:18:34.330Z,18.81
2018-05-04T07:21:04.380Z,18.81
2018-05-04T07:23:34.024Z,18.86
2018-05-04T07:26:03.708Z,18.92
2018-05-04T07:28:33.385Z,18.99
2018-05-04T07:31:03.032Z,18.93
2018-05-04T07:33:32.681Z,19.23
2018-05-04T07:36:02.389Z,19.64
2018-05-04T07:38:32.216Z,19.91
2018-05-04T07:41:01.868Z,20.16
2018-05-04T07:43:31.518Z,20.29
2018-05-04T07:46:01.152Z,20.29
2018-05-04T07:48:30.825Z,20.23
2018-05-04T07:51:00.525Z,20.14
2018-05-04T07:53:30.158Z,20.04
2018-05-04T07:55:59.806Z,20.18
2018-05-04T07:58:29.471Z,20.32
2018-05-04T08:00:58.826Z,20.43
2018-05-04T08:03:28.462Z,20.57
2018-05-04T08:05:58.103Z,20.71
2018-05-04T08:08:27.806Z,21.02
2018-05-04T08:10:57.497Z,21.11
2018-05-04T08:13:27.158Z,21.26
2018-05-04T08:15:56.564Z,21.24
2018-05-04T08:18:26.256Z,21.23
2018-05-04T08:20:55.908Z,21.28
2018-05-04T08:23:25.560Z,21.36
2018-05-04T08:25:55.236Z,21.27
2018-05-04T08:28:24.647Z,21.37
2018-05-04T08:30:54.324Z,21.30
2018-05-04T08:33:23.984Z,21.22
2018-05-04T08:35:53.637Z,21.21
2018-05-04T08:38:23.278Z,21.15
2018-05-04T08:40:53.053Z,20.99
2018-05-04T08:43:22.815Z,20.98
2018-05-04T08:45:52.469Z,21.15
2018-05-04T08:48:22.192Z,21.26
2018-05-04T08:50:52.101Z,21.08
2018-05-04T08:53:21.955Z,21.05
2018-05-04T08:55:51.613Z,20.85
2018-05-04T08:58:21.260Z,20.68
2018-05-04T09:00:50.926Z,20.64
2018-05-04T09:03:20.570Z,20.65
2018-05-04T09:05:50.319Z,20.65
2018-05-04T09:08:19.974Z,20.63
2018-05-04T09:10:49.620Z,20.86
2018-05-04T09:13:19.299Z,21.14
2018-05-04T09:15:48.940Z,21.26
2018-05-04T09:18:18.641Z,21.39
2018-05-04T09:20:48.283Z,21.55
2018-05-04T09:23:17.946Z,21.57
2018-05-04T09:25:47.575Z,21.78
2018-05-04T09:28:17.220Z,21.99
2018-05-04T09:30:46.894Z,22.23
2018-05-04T09:33:16.726Z,22.47
2018-05-04T09:35:46.415Z,22.71
2018-05-04T09:38:16.059Z,22.63
2018-05-04T09:40:45.711Z,22.74
2018-05-04T09:43:15.378Z,22.73
2018-05-04T09:45:45.014Z,23.02
2018-05-04T09:48:14.672Z,23.25
2018-05-04T09:50:44.308Z,23.33
2018-05-04T09:53:14.005Z,23.21
2018-05-04T09:55:43.653Z,22.85
2018-05-04T09:58:13.297Z,22.85
2018-05-04T10:00:42.943Z,22.87
2018-05-04T10:03:12.590Z,23.01
2018-05-04T10:05:42.219Z,23.01
2018-05-04T10:08:11.870Z,22.75
2018-05-04T10:10:41.723Z,22.56
2018-05-04T10:13:11.134Z,22.52
2018-05-04T10:15:40.786Z,22.59
2018-05-04T10:18:10.425Z,22.46
2018-05-04T10:20:40.071Z,22.06
2018-05-04T10:23:09.711Z,21.89
2018-05-04T10:25:39.357Z,21.96
2018-05-04T10:28:09.046Z,22.04
2018-05-04T10:30:38.783Z,22.07
2018-05-04T10:33:08.423Z,22.11
2018-05-04T10:35:38.099Z,22.35
2018-05-04T10:38:07.794Z,22.53
2018-05-04T10:40:37.656Z,22.66
2018-05-04T10:43:07.289Z,22.81
2018-05-04T10:45:36.946Z,22.92
2018-05-04T10:48:06.591Z,22.69
2018-05-04T10:50:36.228Z,22.27
2018-05-04T10:53:05.366Z,22.05
2018-05-04T10:55:34.783Z,22.00
2018-05-04T10:58:04.426Z,21.82
2018-05-04T11:00:34.072Z,21.80
2018-05-04T11:03:03.708Z,21.79
2018-05-04T11:05:33.380Z,21.83
2018-05-04T11:08:03.029Z,21.94
2018-05-04T11:10:32.717Z,21.99
2018-05-04T11:13:02.120Z,21.97
2018-05-04T11:15:31.771Z,21.89
2018-05-04T11:18:01.459Z,21.99
2018-05-04T11:20:31.171Z,21.81
2018-05-04T11:23:00.863Z,21.85
2018-05-04T11:25:30.588Z,21.84
2018-05-04T11:28:00.380Z,21.81
2018-05-04T11:30:30.008Z,21.84
2018-05-04T11:32:59.395Z,21.82
2018-05-04T11:35:29.075Z,21.67
2018-05-04T11:37:58.720Z,21.55
2018-05-04T11:40:28.362Z,21.58
2018-05-04T11:42:57.757Z,21.71
2018-05-04T11:45:27.413Z,21.84
2018-05-04T11:47:57.107Z,21.86
2018-05-04T11:50:26.748Z,21.87
2018-05-04T11:52:56.459Z,21.82
2018-05-04T11:55:26.149Z,21.74
2018-05-04T11:57:55.786Z,21.70
2018-05-04T12:00:25.471Z,21.76
2018-05-04T12:02:55.112Z,21.78
2018-05-04T12:05:24.743Z,21.75
2018-05-04T12:07:54.402Z,21.71
2018-05-04T12:10:24.050Z,21.67
2018-05-04T12:12:53.501Z,21.61
2018-05-04T12:15:23.147Z,21.41
2018-05-04T12:17:52.790Z,21.31
2018-05-04T12:20:22.205Z,21.33
2018-05-04T12:22:51.920Z,21.38
2018-05-04T12:25:21.748Z,21.42
2018-05-04T12:27:51.373Z,21.37
2018-05-04T12:30:21.005Z,21.26
2018-05-04T12:32:50.434Z,21.11
2018-05-04T12:35:20.079Z,21.08
2018-05-04T12:37:49.753Z,21.15
2018-05-04T12:40:20.235Z,21.24
2018-05-04T12:42:49.912Z,21.30
2018-05-04T12:45:19.538Z,21.29
2018-05-04T12:47:49.208Z,21.29
2018-05-04T12:50:18.923Z,21.29
2018-05-04T12:52:48.593Z,21.36
2018-05-04T12:55:18.232Z,21.46
2018-05-04T12:57:47.861Z,21.56
2018-05-04T13:00:17.027Z,21.66
2018-05-04T13:02:46.665Z,21.80
2018-05-04T13:05:16.304Z,21.94
2018-05-04T13:07:45.675Z,22.01
2018-05-04T13:10:15.317Z,21.98
2018-05-04T13:12:44.751Z,21.95
2018-05-04T13:15:14.388Z,21.89
2018-05-04T13:17:44.049Z,21.86
2018-05-04T13:20:13.726Z,21.76
2018-05-04T13:22:43.800Z,21.84
2018-05-04T13:25:13.464Z,21.93
2018-05-04T13:27:43.090Z,21.95
2018-05-04T13:30:12.719Z,21.92
2018-05-04T13:32:42.343Z,21.82
2018-05-04T13:35:11.988Z,21.80
2018-05-04T13:37:41.658Z,21.79
2018-05-04T13:40:11.297Z,21.79
2018-05-04T13:42:40.693Z,21.79
2018-05-04T13:45:10.318Z,21.86
2018-05-04T13:47:40.017Z,21.82
2018-05-04T13:50:09.690Z,21.74
2018-05-04T13:52:39.350Z,21.76
2018-05-04T13:55:09.057Z,21.73
2018-05-04T13:57:38.699Z,21.73
2018-05-04T14:00:08.334Z,21.82
2018-05-04T14:02:37.733Z,21.80
2018-05-04T14:05:07.133Z,21.75
2018-05-04T14:07:36.539Z,21.74
2018-05-04T14:10:05.941Z,21.77
2018-05-04T14:12:35.570Z,21.82
2018-05-04T14:15:05.224Z,21.89
2018-05-04T14:17:34.906Z,21.94
2018-05-04T14:20:03.961Z,21.82
2018-05-04T14:22:33.597Z,21.74
2018-05-04T14:25:03.231Z,21.77
2018-05-04T14:27:32.856Z,21.81
2018-05-04T14:30:02.534Z,21.77
2018-05-04T14:32:32.169Z,21.69
2018-05-04T14:35:01.932Z,21.71
2018-05-04T14:37:31.701Z,21.78
2018-05-04T14:40:01.333Z,21.82
2018-05-04T14:42:31.004Z,21.76
2018-05-04T14:45:00.633Z,21.58
2018-05-04T14:47:30.269Z,21.46
2018-05-04T14:49:59.894Z,21.42
2018-05-04T14:52:29.522Z,21.35
2018-05-04T14:54:59.191Z,21.28
2018-05-04T14:57:28.828Z,21.24
2018-05-04T14:59:58.460Z,21.25
2018-05-04T15:02:28.107Z,21.29
2018-05-04T15:04:57.748Z,21.33
2018-05-04T15:07:27.427Z,21.42
2018-05-04T15:09:57.063Z,21.46
2018-05-04T15:12:26.731Z,21.41
2018-05-04T15:14:56.366Z,21.38
2018-05-04T15:17:25.757Z,21.31
2018-05-04T15:19:55.425Z,21.28
2018-05-04T15:22:25.061Z,21.22
2018-05-04T15:24:54.801Z,21.17
2018-05-04T15:27:24.623Z,21.17
2018-05-04T15:29:54.252Z,21.14
2018-05-04T15:32:23.938Z,21.09
2018-05-04T15:34:53.563Z,21.06
2018-05-04T15:37:23.193Z,21.06
2018-05-04T15:39:52.853Z,21.06
2018-05-04T15:42:22.671Z,21.04
2018-05-04T15:44:52.339Z,21.03
2018-05-04T15:47:21.993Z,20.98
2018-05-04T15:49:51.646Z,20.92
2018-05-04T15:52:21.260Z,20.85
2018-05-04T15:54:50.691Z,20.86
2018-05-04T15:57:20.548Z,20.83
2018-05-04T15:59:50.193Z,20.76
2018-05-04T16:02:19.822Z,20.67
2018-05-04T16:04:49.443Z,20.61
2018-05-04T16:07:18.831Z,20.52
2018-05-04T16:09:48.503Z,20.46
2018-05-04T16:12:18.133Z,20.34
2018-05-04T16:14:47.791Z,20.27
2018-05-04T16:17:17.604Z,20.20
2018-05-04T16:19:47.219Z,20.14
2018-05-04T16:22:16.936Z,20.07
2018-05-04T16:24:46.759Z,20.04
2018-05-04T16:27:16.402Z,19.98
2018-05-04T16:29:46.015Z,19.93
2018-05-04T16:32:15.634Z,19.88
2018-05-04T16:34:45.292Z,19.84
2018-05-04T16:37:14.912Z,19.81
2018-05-04T16:39:44.535Z,19.77
2018-05-04T16:42:14.161Z,19.69
2018-05-04T16:44:43.786Z,19.65
2018-05-04T16:47:18.765Z,19.61
2018-05-04T16:49:48.392Z,19.56
2018-05-04T16:52:18.025Z,19.52
2018-05-04T16:54:47.657Z,19.48
2018-05-04T16:57:17.126Z,19.40
2018-05-04T16:59:46.509Z,19.33
2018-05-04T17:02:16.145Z,19.26
2018-05-04T17:04:45.777Z,19.18
2018-05-04T17:07:15.176Z,19.13
2018-05-04T17:09:44.852Z,19.09
2018-05-04T17:12:14.314Z,19.06
2018-05-04T17:14:43.724Z,19.01
2018-05-04T17:17:13.119Z,18.95
2018-05-04T17:19:42.527Z,18.86
2018-05-04T17:22:12.022Z,18.79
2018-05-04T17:24:41.814Z,18.75
2018-05-04T17:27:11.468Z,18.64
2018-05-04T17:29:40.874Z,18.57
2018-05-04T17:32:10.495Z,18.48
2018-05-04T17:34:40.155Z,18.45
2018-05-04T17:37:09.550Z,18.39
2018-05-04T17:39:39.201Z,18.28
2018-05-04T17:42:08.822Z,18.18
2018-05-04T17:44:38.461Z,18.10
2018-05-04T17:47:08.157Z,18.02
2018-05-04T17:49:37.972Z,17.87
2018-05-04T17:52:07.378Z,17.75
2018-05-04T17:54:37.031Z,17.71
2018-05-04T17:57:06.669Z,17.60
2018-05-04T17:59:36.324Z,17.45
2018-05-04T18:02:05.711Z,17.30
2018-05-04T18:04:35.340Z,17.12
2018-05-04T18:07:04.967Z,17.02
2018-05-04T18:09:34.586Z,16.99
2018-05-04T18:12:04.247Z,16.99
2018-05-04T18:14:33.868Z,16.90
2018-05-04T18:17:03.501Z,16.71
2018-05-04T18:19:33.132Z,16.71
2018-05-04T18:22:02.772Z,16.65
2018-05-04T18:24:32.436Z,16.60
2018-05-04T18:27:02.070Z,16.54
2018-05-04T18:29:31.693Z,16.42
2018-05-04T18:32:01.333Z,16.30
2018-05-04T18:34:30.988Z,16.23
2018-05-04T18:37:00.665Z,16.00
2018-05-04T18:39:30.317Z,15.88
2018-05-04T18:41:59.967Z,15.76
2018-05-04T18:44:29.596Z,15.61
2018-05-04T18:46:59.229Z,15.63
2018-05-04T18:49:28.905Z,15.63
2018-05-04T18:51:58.537Z,15.57
2018-05-04T18:54:28.184Z,15.53
2018-05-04T18:56:58.052Z,15.52
2018-05-04T18:59:27.691Z,15.52
2018-05-04T19:01:57.358Z,15.53
2018-05-04T19:04:27.006Z,15.45
2018-05-04T19:06:56.626Z,15.34
2018-05-04T19:09:26.251Z,15.24
2018-05-04T19:11:55.920Z,15.25
2018-05-04T19:14:25.621Z,15.21
2018-05-04T19:16:55.248Z,15.19
2018-05-04T19:19:24.897Z,15.18
2018-05-04T19:21:54.523Z,14.99
2018-05-04T19:24:24.188Z,14.92
2018-05-04T19:26:53.840Z,14.94
2018-05-04T19:29:23.478Z,14.84
2018-05-04T19:31:53.156Z,14.70
2018-05-04T19:34:22.793Z,14.51
2018-05-04T19:36:52.438Z,14.43
2018-05-04T19:39:22.067Z,14.34
2018-05-04T19:41:51.472Z,14.23
2018-05-04T19:44:21.156Z,14.09
2018-05-04T19:46:50.804Z,13.98
2018-05-04T19:49:21.227Z,13.86
2018-05-04T19:51:50.865Z,13.73
2018-05-04T19:54:20.510Z,13.79
2018-05-04T19:56:50.192Z,13.84
2018-05-04T19:59:19.828Z,13.92
2018-05-04T20:01:49.457Z,13.93
2018-05-04T20:04:19.093Z,13.89
2018-05-04T20:06:48.723Z,13.87
2018-05-04T20:09:18.420Z,13.80
2018-05-04T20:11:48.047Z,13.79
2018-05-04T20:14:17.707Z,13.68
2018-05-04T20:16:47.426Z,13.54
2018-05-04T20:19:17.196Z,13.45
2018-05-04T20:21:46.876Z,13.34
2018-05-04T20:24:16.520Z,13.29
2018-05-04T20:26:46.159Z,13.27
2018-05-04T20:29:15.808Z,13.24
2018-05-04T20:31:45.444Z,13.26
2018-05-04T20:34:15.115Z,13.35
2018-05-04T20:36:44.742Z,13.35
2018-05-04T20:39:14.131Z,13.40
2018-05-04T20:41:43.768Z,13.27
2018-05-04T20:44:13.494Z,13.19
2018-05-04T20:46:43.324Z,13.07
2018-05-04T20:49:12.967Z,13.09
2018-05-04T20:51:42.636Z,13.06
2018-05-04T20:54:12.255Z,13.11
2018-05-04T20:56:41.542Z,13.03
2018-05-04T20:59:11.197Z,12.93
2018-05-04T21:01:40.833Z,12.90
2018-05-04T21:04:10.486Z,12.90
2018-05-04T21:06:40.357Z,12.93
2018-05-04T21:09:09.991Z,12.81
2018-05-04T21:14:08.052Z,12.76
2018-05-04T21:16:37.726Z,12.67
2018-05-04T21:19:07.363Z,12.68
2018-05-04T21:21:36.991Z,12.67
2018-05-04T21:24:06.616Z,12.64
2018-05-04T21:26:36.253Z,12.54
2018-05-04T21:29:05.685Z,12.55
2018-05-04T21:31:35.309Z,12.50
2018-05-04T21:34:04.935Z,12.48
2018-05-04T21:36:34.565Z,12.40
2018-05-04T21:39:03.641Z,12.35
2018-05-04T21:41:33.516Z,12.34
2018-05-04T21:44:03.140Z,12.27
2018-05-04T21:46:32.773Z,12.16
2018-05-04T21:49:02.400Z,12.09
2018-05-04T21:51:31.801Z,11.99
2018-05-04T21:54:01.248Z,12.09
2018-05-04T21:56:30.882Z,12.06
2018-05-04T21:59:00.541Z,12.02
2018-05-04T22:01:30.171Z,11.95
2018-05-04T22:03:59.806Z,11.92
2018-05-04T22:06:29.483Z,11.97
2018-05-04T22:08:59.115Z,11.93
2018-05-04T22:11:28.753Z,11.96
2018-05-04T22:13:58.391Z,11.97
2018-05-04T22:16:28.015Z,11.98
2018-05-04T22:18:57.419Z,12.12
2018-05-04T22:21:26.832Z,12.13
2018-05-04T22:23:56.467Z,12.07
2018-05-04T22:26:26.117Z,12.03
2018-05-04T22:28:55.952Z,11.97
2018-05-04T22:31:25.628Z,12.03
2018-05-04T22:33:55.268Z,12.07
2018-05-04T22:36:24.897Z,12.13
2018-05-04T22:38:54.519Z,12.11
2018-05-04T22:41:24.156Z,11.96
2018-05-04T22:43:53.839Z,11.84
2018-05-04T22:46:23.475Z,11.77
2018-05-04T22:48:53.132Z,11.80
2018-05-04T22:51:22.788Z,11.81
2018-05-04T22:53:52.445Z,11.85
2018-05-04T22:56:22.137Z,11.90
2018-05-04T22:58:51.783Z,11.94
2018-05-04T23:01:21.452Z,11.93
2018-05-04T23:03:51.100Z,11.89
2018-05-04T23:06:20.510Z,11.95
2018-05-04T23:08:50.175Z,12.02
2018-05-04T23:11:19.810Z,11.97
2018-05-04T23:13:49.452Z,11.96
2018-05-04T23:16:19.097Z,11.91
2018-05-04T23:18:48.727Z,11.94
2018-05-04T23:21:18.428Z,11.85
2018-05-04T23:23:48.071Z,11.90
2018-05-04T23:26:17.715Z,11.88
2018-05-04T23:28:47.369Z,11.82
2018-05-04T23:31:17.012Z,11.84
2018-05-04T23:33:46.708Z,11.84
2018-05-04T23:36:16.384Z,11.88
2018-05-04T23:38:46.057Z,11.88
2018-05-04T23:41:15.710Z,11.86
2018-05-04T23:43:45.348Z,11.87
2018-05-04T23:46:15.034Z,11.80
2018-05-04T23:48:44.681Z,11.73
2018-05-04T23:51:14.362Z,11.69
2018-05-04T23:53:43.998Z,11.66
2018-05-04T23:56:13.626Z,11.69
2018-05-04T23:58:43.074Z,11.65
